createdAt,value
2022-12-18T00:00:01.790Z,63.90
2022-12-18T00:02:29.613Z,53.17
2022-12-18T00:04:57.522Z,76.63
2022-12-18T00:07:25.086Z,58.70
2022-12-18T00:09:52.751Z,48.70
2022-12-18T00:12:20.404Z,78.40
2022-12-18T00:14:49.373Z,58.50
2022-12-18T00:17:17.172Z,60.60
2022-12-18T00:19:44.779Z,86.57
2022-12-18T00:22:12.586Z,67.13
2022-12-18T00:24:40.568Z,54.50
2022-12-18T00:27:08.201Z,72.70
2022-12-18T00:29:36.404Z,156.47
2022-12-18T00:32:05.704Z,127.57
2022-12-18T00:34:33.579Z,61.53
2022-12-18T00:37:01.200Z,116.63
2022-12-18T00:39:28.898Z,100.33
2022-12-18T00:42:13.827Z,57.80
2022-12-18T00:44:41.523Z,59.13
2022-12-18T00:47:10.471Z,56.90
2022-12-18T00:49:38.383Z,63.47
2022-12-18T00:52:06.031Z,61.73
2022-12-18T00:54:34.216Z,61.17
2022-12-18T00:57:01.792Z,53.77
2022-12-18T00:59:29.424Z,49.77
2022-12-18T01:01:57.281Z,51.87
2022-12-18T01:04:26.389Z,55.87
2022-12-18T01:06:53.996Z,62.97
2022-12-18T01:09:21.644Z,60.17
2022-12-18T01:11:49.256Z,56.50
2022-12-18T01:14:17.069Z,59.93
2022-12-18T01:16:44.879Z,57.77
2022-12-18T01:19:12.702Z,54.30
2022-12-18T01:21:42.189Z,61.80
2022-12-18T01:24:09.844Z,56.47
2022-12-18T01:26:37.465Z,54.80
2022-12-18T01:29:05.104Z,53.70
2022-12-18T01:31:34.821Z,59.83
2022-12-18T01:34:04.836Z,53.10
2022-12-18T01:36:33.788Z,52.47
2022-12-18T01:39:03.757Z,59.40
2022-12-18T01:41:52.724Z,54.97
2022-12-18T01:44:57.938Z,63.73
2022-12-18T01:47:28.467Z,68.40
2022-12-18T01:49:57.135Z,76.80
2022-12-18T01:52:27.016Z,85.10
2022-12-18T01:54:56.847Z,54.57
2022-12-18T01:57:25.813Z,58.27
2022-12-18T01:59:55.377Z,54.97
2022-12-18T02:02:23.412Z,56.63
2022-12-18T02:04:51.304Z,70.13
2022-12-18T02:07:24.731Z,57.60
2022-12-18T02:09:59.570Z,55.93
2022-12-18T02:12:32.700Z,52.43
2022-12-18T02:15:03.121Z,65.77
2022-12-18T02:17:33.638Z,53.67
2022-12-18T02:20:08.038Z,59.00
2022-12-18T02:22:41.256Z,65.33
2022-12-18T02:25:18.696Z,53.33
2022-12-18T02:27:49.439Z,44.13
2022-12-18T02:30:20.254Z,43.57
2022-12-18T02:32:52.001Z,48.07
2022-12-18T02:35:24.947Z,46.60
2022-12-18T02:37:56.114Z,54.30
2022-12-18T02:40:25.680Z,50.93
2022-12-18T02:42:54.742Z,44.23
2022-12-18T02:45:22.855Z,50.70
2022-12-18T02:47:51.498Z,44.43
2022-12-18T02:50:21.543Z,42.93
2022-12-18T02:52:58.403Z,47.27
2022-12-18T02:55:33.629Z,43.17
2022-12-18T02:58:06.005Z,40.57
2022-12-18T03:00:36.387Z,37.83
2022-12-18T03:03:09.053Z,40.83
2022-12-18T03:05:39.935Z,36.30
2022-12-18T03:08:09.812Z,47.87
2022-12-18T03:10:40.722Z,39.63
2022-12-18T03:13:12.856Z,43.27
2022-12-18T03:15:44.829Z,38.03
2022-12-18T03:18:15.256Z,39.40
2022-12-18T03:20:44.724Z,38.97
2022-12-18T03:23:15.898Z,42.30
2022-12-18T03:25:45.272Z,42.67
2022-12-18T03:28:16.465Z,39.10
2022-12-18T03:30:46.056Z,36.23
2022-12-18T03:33:20.474Z,45.60
2022-12-18T03:35:48.328Z,40.97
2022-12-18T03:38:16.207Z,41.00
2022-12-18T03:40:50.298Z,42.63
2022-12-18T03:43:22.933Z,38.90
2022-12-18T03:45:54.355Z,41.10
2022-12-18T03:48:27.970Z,38.63
2022-12-18T03:50:58.652Z,36.03
2022-12-18T03:53:34.010Z,37.97
2022-12-18T03:56:02.854Z,37.90
2022-12-18T03:58:33.940Z,36.40
2022-12-18T04:01:05.148Z,39.60
2022-12-18T04:03:33.911Z,37.30
2022-12-18T04:06:02.950Z,34.83
2022-12-18T04:08:31.325Z,37.60
2022-12-18T04:10:58.915Z,31.17
2022-12-18T04:13:27.134Z,35.10
2022-12-18T04:15:56.173Z,30.80
2022-12-18T04:18:23.782Z,44.53
2022-12-18T04:20:51.341Z,37.70
2022-12-18T04:23:19.000Z,37.90
2022-12-18T04:25:47.373Z,31.27
2022-12-18T04:28:14.974Z,38.00
2022-12-18T04:30:42.743Z,38.87
2022-12-18T04:33:12.705Z,39.00
2022-12-18T04:35:40.672Z,37.93
2022-12-18T04:38:09.215Z,36.67
2022-12-18T04:40:36.939Z,40.43
2022-12-18T04:43:04.900Z,34.60
2022-12-18T04:45:32.657Z,40.00
2022-12-18T04:48:00.269Z,41.60
2022-12-18T04:50:29.696Z,35.10
2022-12-18T04:52:57.528Z,39.53
2022-12-18T04:55:25.168Z,36.60
2022-12-18T04:57:52.783Z,38.03
2022-12-18T05:00:20.522Z,40.73
2022-12-18T05:02:48.306Z,36.83
2022-12-18T05:05:16.291Z,43.37
2022-12-18T05:07:45.269Z,40.63
2022-12-18T05:10:13.681Z,38.77
2022-12-18T05:12:59.093Z,38.60
2022-12-18T05:15:30.264Z,30.97
2022-12-18T05:17:58.212Z,39.80
2022-12-18T05:20:26.253Z,40.23
2022-12-18T05:22:55.460Z,35.97
2022-12-18T05:25:24.161Z,33.33
2022-12-18T05:27:51.842Z,39.17
2022-12-18T05:30:19.745Z,38.53
2022-12-18T05:32:47.380Z,42.93
2022-12-18T05:35:14.951Z,41.27
2022-12-18T05:37:43.416Z,36.83
2022-12-18T05:40:13.829Z,39.63
2022-12-18T05:42:41.535Z,40.43
2022-12-18T05:45:09.975Z,41.57
2022-12-18T05:47:37.973Z,39.43
2022-12-18T05:50:06.606Z,39.30
2022-12-18T05:52:34.234Z,36.87
2022-12-18T05:55:01.957Z,41.70
2022-12-18T05:57:30.895Z,31.90
2022-12-18T05:59:58.509Z,37.17
2022-12-18T06:02:26.081Z,35.20
2022-12-18T06:04:53.715Z,36.97
2022-12-18T06:07:21.314Z,33.80
2022-12-18T06:09:48.922Z,38.20
2022-12-18T06:12:16.641Z,35.37
2022-12-18T06:14:45.781Z,33.13
2022-12-18T06:17:13.379Z,32.67
2022-12-18T06:19:40.975Z,37.60
2022-12-18T06:22:08.597Z,38.07
2022-12-18T06:24:36.217Z,38.10
2022-12-18T06:27:03.858Z,33.43
2022-12-18T06:29:31.422Z,37.47
2022-12-18T06:32:00.406Z,41.47
2022-12-18T06:34:28.107Z,39.10
2022-12-18T06:36:55.673Z,46.67
2022-12-18T06:39:23.460Z,70.87
2022-12-18T06:41:51.021Z,67.23
2022-12-18T06:44:18.896Z,66.17
2022-12-18T06:46:46.578Z,52.10
2022-12-18T06:49:16.909Z,56.53
2022-12-18T06:51:44.564Z,45.43
2022-12-18T06:54:12.206Z,54.00
2022-12-18T06:56:39.891Z,49.17
2022-12-18T06:59:07.616Z,64.00
2022-12-18T07:01:35.399Z,66.67
2022-12-18T07:04:03.058Z,38.67
2022-12-18T07:06:32.204Z,40.70
2022-12-18T07:08:59.816Z,46.83
2022-12-18T07:11:27.366Z,38.40
2022-12-18T07:13:55.291Z,41.60
2022-12-18T07:16:25.663Z,42.43
2022-12-18T07:18:53.796Z,39.43
2022-12-18T07:21:21.880Z,38.10
2022-12-18T07:23:50.878Z,32.57
2022-12-18T07:26:20.202Z,38.47
2022-12-18T07:28:48.225Z,37.37
2022-12-18T07:31:17.429Z,39.10
2022-12-18T07:33:45.541Z,35.67
2022-12-18T07:36:13.539Z,40.57
2022-12-18T07:38:41.371Z,34.67
2022-12-18T07:41:11.917Z,48.43
2022-12-18T07:43:41.070Z,40.47
2022-12-18T07:46:10.746Z,39.63
2022-12-18T07:48:41.291Z,34.97
2022-12-18T07:51:09.588Z,30.53
2022-12-18T07:53:38.674Z,34.27
2022-12-18T07:58:58.462Z,33.67
2022-12-18T08:01:26.277Z,35.73
2022-12-18T08:03:54.239Z,36.50
2022-12-18T08:06:22.587Z,35.93
2022-12-18T08:08:53.152Z,36.93
2022-12-18T08:11:20.781Z,33.10
2022-12-18T08:13:49.134Z,33.43
2022-12-18T08:16:20.047Z,35.20
2022-12-18T08:18:48.687Z,32.67
2022-12-18T08:21:19.065Z,36.33
2022-12-18T08:23:51.111Z,37.90
2022-12-18T08:26:19.318Z,35.57
2022-12-18T08:28:47.311Z,39.13
2022-12-18T08:31:15.711Z,31.53
2022-12-18T08:33:45.245Z,34.00
2022-12-18T08:36:13.364Z,31.10
2022-12-18T08:38:41.080Z,32.77
2022-12-18T08:41:11.217Z,37.57
2022-12-18T08:43:56.943Z,39.73
2022-12-18T08:46:26.406Z,37.40
2022-12-18T08:48:56.723Z,31.47
2022-12-18T08:51:24.311Z,31.87
2022-12-18T08:53:51.945Z,37.13
2022-12-18T08:56:20.217Z,34.23
2022-12-18T08:58:48.018Z,34.37
2022-12-18T09:01:15.934Z,35.50
2022-12-18T09:03:44.398Z,37.50
2022-12-18T09:06:16.017Z,37.87
2022-12-18T09:08:44.166Z,31.10
2022-12-18T09:11:16.057Z,33.67
2022-12-18T09:13:44.181Z,35.50
2022-12-18T09:16:11.736Z,39.83
2022-12-18T09:18:39.635Z,34.43
2022-12-18T09:21:13.618Z,35.60
2022-12-18T09:23:41.208Z,41.00
2022-12-18T09:26:09.455Z,34.53
2022-12-18T09:28:37.388Z,37.73
2022-12-18T09:31:09.664Z,37.10
2022-12-18T09:33:37.771Z,40.67
2022-12-18T09:36:08.536Z,37.30
2022-12-18T09:38:38.132Z,37.10
2022-12-18T09:41:08.660Z,37.87
2022-12-18T09:43:39.416Z,37.50
2022-12-18T09:46:09.971Z,36.17
2022-12-18T09:48:39.890Z,38.60
2022-12-18T09:51:14.415Z,38.40
2022-12-18T09:53:46.969Z,36.40
2022-12-18T09:56:18.251Z,34.60
2022-12-18T09:58:50.408Z,43.07
2022-12-18T10:01:21.678Z,38.83
2022-12-18T10:03:51.594Z,32.53
2022-12-18T10:06:24.441Z,38.13
2022-12-18T10:08:58.442Z,36.37
2022-12-18T10:11:40.077Z,35.20
2022-12-18T10:14:14.222Z,33.37
2022-12-18T10:16:52.279Z,34.03
2022-12-18T10:19:34.274Z,33.73
2022-12-18T10:22:21.162Z,35.80
2022-12-18T10:24:55.226Z,30.87
2022-12-18T10:27:25.887Z,33.23
2022-12-18T10:29:54.157Z,31.87
2022-12-18T10:32:26.591Z,35.40
2022-12-18T10:35:00.549Z,39.63
2022-12-18T10:37:30.634Z,35.83
2022-12-18T10:40:16.647Z,33.20
2022-12-18T10:42:47.779Z,34.77
2022-12-18T10:45:17.478Z,33.13
2022-12-18T10:47:47.458Z,36.03
2022-12-18T10:50:26.243Z,33.77
2022-12-18T10:53:01.296Z,36.03
2022-12-18T10:55:37.935Z,35.00
2022-12-18T10:58:24.975Z,32.10
2022-12-18T11:01:08.847Z,31.93
2022-12-18T11:03:38.930Z,36.77
2022-12-18T11:06:09.275Z,35.50
2022-12-18T11:08:38.060Z,33.80
2022-12-18T11:11:18.895Z,33.63
2022-12-18T11:13:58.102Z,34.50
2022-12-18T11:16:26.696Z,34.20
2022-12-18T11:18:54.744Z,33.10
2022-12-18T11:21:22.943Z,34.87
2022-12-18T11:23:52.418Z,32.33
2022-12-18T11:26:22.690Z,32.47
2022-12-18T11:28:53.834Z,31.93
2022-12-18T11:31:26.785Z,33.30
2022-12-18T11:36:51.962Z,32.50
2022-12-18T11:39:22.504Z,30.57
2022-12-18T11:42:11.127Z,33.03
2022-12-18T11:44:48.334Z,32.57
2022-12-18T11:47:23.482Z,37.67
2022-12-18T11:49:51.791Z,33.63
2022-12-18T11:52:23.822Z,37.70
2022-12-18T11:54:54.489Z,35.43
2022-12-18T11:57:35.930Z,33.20
2022-12-18T12:00:06.714Z,34.03
2022-12-18T12:02:49.650Z,35.30
2022-12-18T12:05:30.286Z,37.50
2022-12-18T12:08:03.661Z,45.07
2022-12-18T12:10:39.561Z,36.80
2022-12-18T12:13:26.405Z,40.70
2022-12-18T12:16:04.686Z,37.60
2022-12-18T12:18:44.986Z,34.73
2022-12-18T12:21:16.320Z,34.27
2022-12-18T12:23:51.336Z,33.57
2022-12-18T12:26:22.204Z,39.33
2022-12-18T12:29:02.330Z,40.23
2022-12-18T12:31:40.519Z,37.63
2022-12-18T12:34:16.250Z,40.23
2022-12-18T12:36:56.446Z,44.13
2022-12-18T12:39:27.014Z,33.20
2022-12-18T12:42:12.926Z,42.47
2022-12-18T12:44:45.234Z,40.80
2022-12-18T12:47:17.785Z,40.77
2022-12-18T12:49:50.251Z,40.27
2022-12-18T12:52:30.780Z,43.40
2022-12-18T12:54:58.834Z,39.77
2022-12-18T12:57:33.377Z,39.40
2022-12-18T13:00:06.473Z,40.07
2022-12-18T13:02:38.854Z,38.80
2022-12-18T13:05:14.790Z,41.57
2022-12-18T13:07:44.313Z,41.43
2022-12-18T13:10:34.862Z,42.17
2022-12-18T13:13:03.883Z,39.37
2022-12-18T13:15:39.986Z,40.57
2022-12-18T13:18:14.400Z,38.90
2022-12-18T13:20:46.630Z,41.23
2022-12-18T13:23:28.044Z,44.97
2022-12-18T13:25:56.765Z,42.33
2022-12-18T13:28:26.912Z,39.83
2022-12-18T13:30:58.420Z,39.47
2022-12-18T13:34:23.815Z,41.53
2022-12-18T13:36:36.405Z,45.07
2022-12-18T13:39:30.229Z,46.43
2022-12-18T13:43:04.922Z,46.07
2022-12-18T13:45:40.560Z,46.77
2022-12-18T13:51:06.122Z,46.73
2022-12-18T13:53:43.833Z,46.53
2022-12-18T13:56:19.513Z,44.73
2022-12-18T13:58:50.384Z,45.43
2022-12-18T14:01:27.226Z,39.90
2022-12-18T14:04:13.340Z,41.50
2022-12-18T14:06:42.772Z,44.83
2022-12-18T14:09:20.296Z,43.53
2022-12-18T14:11:50.202Z,41.13
2022-12-18T14:14:22.774Z,43.63
2022-12-18T14:16:52.681Z,41.97
2022-12-18T14:19:25.550Z,39.47
2022-12-18T14:21:53.834Z,41.47
2022-12-18T14:24:23.441Z,44.20
2022-12-18T14:26:53.231Z,43.57
2022-12-18T14:29:24.307Z,42.97
2022-12-18T14:32:16.558Z,41.63
2022-12-18T14:34:49.183Z,41.27
2022-12-18T14:37:18.695Z,39.17
2022-12-18T14:40:00.101Z,41.20
2022-12-18T14:42:29.445Z,42.03
2022-12-18T14:45:41.644Z,42.43
2022-12-18T14:48:13.952Z,47.70
2022-12-18T14:50:44.899Z,51.77
2022-12-18T14:53:23.182Z,46.07
2022-12-18T14:55:51.035Z,44.20
2022-12-18T14:58:20.879Z,48.73
2022-12-18T15:00:49.813Z,41.60
2022-12-18T15:03:20.965Z,42.57
2022-12-18T15:05:50.221Z,45.13
2022-12-18T15:08:31.433Z,41.93
2022-12-18T15:10:59.452Z,46.87
2022-12-18T15:13:27.475Z,45.37
2022-12-18T15:15:56.825Z,43.43
2022-12-18T15:18:32.066Z,42.60
2022-12-18T15:21:02.998Z,45.40
2022-12-18T15:24:26.819Z,50.60
2022-12-18T15:26:55.697Z,47.20
2022-12-18T15:29:26.254Z,43.43
2022-12-18T15:32:04.980Z,47.23
2022-12-18T15:34:35.279Z,48.07
2022-12-18T15:37:04.309Z,46.83
2022-12-18T15:39:31.929Z,50.67
2022-12-18T15:42:22.603Z,55.37
2022-12-18T15:44:50.586Z,42.80
2022-12-18T15:47:18.467Z,50.20
2022-12-18T15:49:46.132Z,48.50
2022-12-18T15:52:27.325Z,52.47
2022-12-18T15:55:12.715Z,43.63
2022-12-18T15:57:40.867Z,45.60
2022-12-18T16:00:14.048Z,53.73
2022-12-18T16:02:41.790Z,46.97
2022-12-18T16:05:12.668Z,50.50
2022-12-18T16:07:41.608Z,48.13
2022-12-18T16:10:09.975Z,44.60
2022-12-18T16:12:38.013Z,54.57
2022-12-18T16:15:06.952Z,45.83
2022-12-18T16:17:35.100Z,47.77
2022-12-18T16:20:02.735Z,51.20
2022-12-18T16:22:31.742Z,49.80
2022-12-18T16:25:00.663Z,52.20
2022-12-18T16:27:29.347Z,54.60
2022-12-18T16:29:57.011Z,46.77
2022-12-18T16:32:25.100Z,49.00
2022-12-18T16:34:53.733Z,50.07
2022-12-18T16:37:21.625Z,46.63
2022-12-18T16:39:49.709Z,50.57
2022-12-18T16:42:21.046Z,44.07
2022-12-18T16:44:51.467Z,50.03
2022-12-18T16:47:19.392Z,51.03
2022-12-18T16:49:47.470Z,47.77
2022-12-18T16:52:15.665Z,51.63
2022-12-18T16:54:44.521Z,49.93
2022-12-18T16:57:15.014Z,48.27
2022-12-18T16:59:44.755Z,51.63
2022-12-18T17:02:15.583Z,50.37
2022-12-18T17:04:44.943Z,48.90
2022-12-18T17:07:12.906Z,46.70
2022-12-18T17:09:40.906Z,45.30
2022-12-18T17:12:08.849Z,51.97
2022-12-18T17:14:37.249Z,54.67
2022-12-18T17:17:20.952Z,47.77
2022-12-18T17:19:49.263Z,49.40
2022-12-18T17:22:16.913Z,47.77
2022-12-18T17:24:44.505Z,50.87
2022-12-18T17:27:12.134Z,59.37
2022-12-18T17:29:45.345Z,59.63
2022-12-18T17:32:17.116Z,58.23
2022-12-18T17:34:54.995Z,46.93
2022-12-18T17:37:23.179Z,57.40
2022-12-18T17:39:50.741Z,51.10
2022-12-18T17:42:18.331Z,54.13
2022-12-18T17:44:46.007Z,51.77
2022-12-18T17:47:13.602Z,54.47
2022-12-18T17:49:42.580Z,55.40
2022-12-18T17:52:10.304Z,47.33
2022-12-18T17:54:39.765Z,52.00
2022-12-18T17:57:07.619Z,50.73
2022-12-18T17:59:35.248Z,52.10
2022-12-18T18:02:03.788Z,55.83
2022-12-18T18:04:32.323Z,49.77
2022-12-18T18:07:03.167Z,49.20
2022-12-18T18:09:31.096Z,48.83
2022-12-18T18:12:16.230Z,48.47
2022-12-18T18:14:43.900Z,52.57
2022-12-18T18:17:12.444Z,53.43
2022-12-18T18:19:40.053Z,55.83
2022-12-18T18:22:10.323Z,47.43
2022-12-18T18:24:38.600Z,48.43
2022-12-18T18:27:06.278Z,49.80
2022-12-18T18:29:33.871Z,50.00
2022-12-18T18:32:03.096Z,52.30
2022-12-18T18:34:32.759Z,46.20
2022-12-18T18:37:00.954Z,50.30
2022-12-18T18:39:30.630Z,53.27
2022-12-18T18:41:59.337Z,49.33
2022-12-18T18:44:27.070Z,49.57
2022-12-18T18:46:55.778Z,52.33
2022-12-18T18:49:24.324Z,53.57
2022-12-18T18:51:52.039Z,55.60
2022-12-18T18:54:19.650Z,47.57
2022-12-18T18:57:19.521Z,48.53
2022-12-18T18:59:37.024Z,50.70
2022-12-18T19:02:05.188Z,45.23
2022-12-18T19:04:33.301Z,47.57
2022-12-18T19:07:01.107Z,53.73
2022-12-18T19:09:29.379Z,51.13
2022-12-18T19:12:15.944Z,49.07
2022-12-18T19:14:43.895Z,48.57
2022-12-18T19:17:11.725Z,55.67
2022-12-18T19:19:40.068Z,59.70
2022-12-18T19:22:09.252Z,54.77
2022-12-18T19:24:36.872Z,56.67
2022-12-18T19:27:05.859Z,46.70
2022-12-18T19:29:37.616Z,50.00
2022-12-18T19:32:05.921Z,48.53
2022-12-18T19:34:33.537Z,55.07
2022-12-18T19:37:02.217Z,53.10
2022-12-18T19:39:29.742Z,56.47
2022-12-18T19:41:57.663Z,46.60
2022-12-18T19:44:26.747Z,51.13
2022-12-18T19:46:54.390Z,49.00
2022-12-18T19:49:21.978Z,49.00
2022-12-18T19:51:50.257Z,44.43
2022-12-18T19:54:18.584Z,58.53
2022-12-18T19:56:46.816Z,46.67
2022-12-18T19:59:16.397Z,45.70
2022-12-18T20:01:45.555Z,51.17
2022-12-18T20:04:13.481Z,46.97
2022-12-18T20:06:48.271Z,49.27
2022-12-18T20:09:16.393Z,48.07
2022-12-18T20:11:44.454Z,46.93
2022-12-18T20:14:12.524Z,52.13
2022-12-18T20:16:40.820Z,54.37
2022-12-18T20:19:11.292Z,52.30
2022-12-18T20:21:39.002Z,44.33
2022-12-18T20:24:08.280Z,59.60
2022-12-18T20:26:35.843Z,57.53
2022-12-18T20:29:03.457Z,60.33
2022-12-18T20:31:31.367Z,54.43
2022-12-18T20:34:01.457Z,52.43
2022-12-18T20:36:34.069Z,53.97
2022-12-18T20:39:04.034Z,52.37
2022-12-18T20:41:38.197Z,51.50
2022-12-18T20:44:09.847Z,50.93
2022-12-18T20:46:50.448Z,50.50
2022-12-18T20:49:18.062Z,46.60
2022-12-18T20:51:46.951Z,46.07
2022-12-18T20:54:14.557Z,46.03
2022-12-18T20:56:42.108Z,50.80
2022-12-18T20:59:11.336Z,48.27
2022-12-18T21:01:41.492Z,48.77
2022-12-18T21:04:15.840Z,51.83
2022-12-18T21:06:50.998Z,47.73
2022-12-18T21:09:20.376Z,47.83
2022-12-18T21:12:05.475Z,46.47
2022-12-18T21:14:33.230Z,48.00
2022-12-18T21:17:02.007Z,48.37
2022-12-18T21:19:29.874Z,51.67
2022-12-18T21:21:59.278Z,54.90
2022-12-18T21:24:28.192Z,49.00
2022-12-18T21:26:56.463Z,50.37
2022-12-18T21:29:25.421Z,46.87
2022-12-18T21:31:55.486Z,44.77
2022-12-18T21:34:25.401Z,48.30
2022-12-18T21:36:53.731Z,49.23
2022-12-18T21:39:22.858Z,45.90
2022-12-18T21:42:08.554Z,47.00
2022-12-18T21:44:41.660Z,45.73
2022-12-18T21:47:20.904Z,45.50
2022-12-18T21:49:50.083Z,51.20
2022-12-18T21:52:17.913Z,49.63
2022-12-18T21:54:46.909Z,44.83
2022-12-18T21:57:14.648Z,48.23
2022-12-18T21:59:44.259Z,52.10
2022-12-18T22:02:13.840Z,51.00
2022-12-18T22:04:41.772Z,52.07
2022-12-18T22:07:09.450Z,50.07
2022-12-18T22:09:38.968Z,48.90
2022-12-18T22:12:08.890Z,43.10
2022-12-18T22:14:36.623Z,49.47
2022-12-18T22:17:04.238Z,45.53
2022-12-18T22:19:35.700Z,44.97
2022-12-18T22:22:07.722Z,43.93
2022-12-18T22:24:35.371Z,48.80
2022-12-18T22:27:03.049Z,48.60
2022-12-18T22:29:49.500Z,41.77
2022-12-18T22:32:31.038Z,49.80
2022-12-18T22:35:05.209Z,47.03
2022-12-18T22:37:33.784Z,46.23
2022-12-18T22:40:03.188Z,43.70
2022-12-18T22:42:31.478Z,50.60
2022-12-18T22:45:00.628Z,46.07
2022-12-18T22:47:30.525Z,48.87
2022-12-18T22:49:58.480Z,50.57
2022-12-18T22:52:26.542Z,43.70
2022-12-18T22:54:54.574Z,44.50
2022-12-18T22:57:22.593Z,46.43
2022-12-18T22:59:50.218Z,46.80
2022-12-18T23:02:19.667Z,47.63
2022-12-18T23:04:47.595Z,50.47
2022-12-18T23:07:15.537Z,45.97
2022-12-18T23:09:43.261Z,44.17
2022-12-18T23:12:16.494Z,48.77
2022-12-18T23:14:44.366Z,46.10
2022-12-18T23:17:12.265Z,49.30
2022-12-18T23:19:47.165Z,49.70
2022-12-18T23:22:16.657Z,49.57
2022-12-18T23:24:44.333Z,44.83
2022-12-18T23:27:12.340Z,48.70
2022-12-18T23:29:40.108Z,50.03
2022-12-18T23:32:07.819Z,49.67
2022-12-18T23:34:35.528Z,49.03
2022-12-18T23:37:04.595Z,52.23
2022-12-18T23:39:32.422Z,52.00
2022-12-18T23:42:00.493Z,47.07
2022-12-18T23:44:28.546Z,53.90
2022-12-18T23:46:56.402Z,47.00
2022-12-18T23:49:24.386Z,51.70
2022-12-18T23:51:55.441Z,45.53
2022-12-18T23:54:33.437Z,54.70
2022-12-18T23:57:02.307Z,47.97
2022-12-18T23:59:30.741Z,50.43
